sensor_id;sensor_type;location;lat;lon;timestamp;pressure;altitude;pressure_sealevel;temperature;humidity
24762;BME280;12865;51.934;10.330;2022-09-01T00:00:20;99850.03;;;12.13;98.17
24762;BME280;12865;51.934;10.330;2022-09-01T00:03:07;99847.78;;;12.08;98.74
24762;BME280;12865;51.934;10.330;2022-09-01T00:05:57;99847.38;;;12.13;98.76
24762;BME280;12865;51.934;10.330;2022-09-01T00:08:42;99844.03;;;12.20;99.67
24762;BME280;12865;51.934;10.330;2022-09-01T00:11:29;99838.00;;;12.28;100.00
24762;BME280;12865;51.934;10.330;2022-09-01T00:14:20;99841.53;;;12.29;100.00
24762;BME280;12865;51.934;10.330;2022-09-01T00:17:08;99838.72;;;12.30;100.00
24762;BME280;12865;51.934;10.330;2022-09-01T00:19:54;99836.78;;;12.32;100.00
24762;BME280;12865;51.934;10.330;2022-09-01T00:22:40;99834.09;;;12.32;100.00
24762;BME280;12865;51.934;10.330;2022-09-01T00:25:26;99835.94;;;12.32;100.00
24762;BME280;12865;51.934;10.330;2022-09-01T00:28:12;99844.50;;;12.35;100.00
24762;BME280;12865;51.934;10.330;2022-09-01T00:30:58;99846.75;;;12.30;100.00
24762;BME280;12865;51.934;10.330;2022-09-01T00:33:44;99840.97;;;12.25;100.00
24762;BME280;12865;51.934;10.330;2022-09-01T00:36:30;99840.00;;;12.26;100.00
24762;BME280;12865;51.934;10.330;2022-09-01T00:39:16;99839.81;;;12.18;100.00
24762;BME280;12865;51.934;10.330;2022-09-01T00:42:03;99835.59;;;12.15;100.00
24762;BME280;12865;51.934;10.330;2022-09-01T00:44:48;99844.25;;;12.08;100.00
24762;BME280;12865;51.934;10.330;2022-09-01T00:47:36;99845.41;;;12.05;100.00
24762;BME280;12865;51.934;10.330;2022-09-01T00:50:22;99841.16;;;12.03;100.00
24762;BME280;12865;51.934;10.330;2022-09-01T00:53:09;99842.69;;;11.96;100.00
24762;BME280;12865;51.934;10.330;2022-09-01T00:55:55;99840.25;;;11.93;100.00
24762;BME280;12865;51.934;10.330;2022-09-01T00:58:41;99840.47;;;11.80;100.00
24762;BME280;12865;51.934;10.330;2022-09-01T01:01:27;99838.44;;;11.72;100.00
24762;BME280;12865;51.934;10.330;2022-09-01T01:04:13;99841.38;;;11.69;100.00
24762;BME280;12865;51.934;10.330;2022-09-01T01:07:02;99836.28;;;11.66;100.00
24762;BME280;12865;51.934;10.330;2022-09-01T01:09:48;99841.19;;;11.61;100.00
24762;BME280;12865;51.934;10.330;2022-09-01T01:12:34;99844.72;;;11.62;100.00
24762;BME280;12865;51.934;10.330;2022-09-01T01:15:22;99833.50;;;11.68;100.00
24762;BME280;12865;51.934;10.330;2022-09-01T01:18:12;99833.16;;;11.61;100.00
24762;BME280;12865;51.934;10.330;2022-09-01T01:21:06;99841.00;;;11.53;100.00
24762;BME280;12865;51.934;10.330;2022-09-01T01:24:29;99832.38;;;11.50;100.00
24762;BME280;12865;51.934;10.330;2022-09-01T01:27:15;99838.31;;;11.53;100.00
24762;BME280;12865;51.934;10.330;2022-09-01T01:30:06;99835.66;;;11.53;100.00
24762;BME280;12865;51.934;10.330;2022-09-01T01:32:55;99833.81;;;11.54;100.00
24762;BME280;12865;51.934;10.330;2022-09-01T01:35:42;99825.28;;;11.60;100.00
24762;BME280;12865;51.934;10.330;2022-09-01T01:38:29;99830.69;;;11.69;100.00
24762;BME280;12865;51.934;10.330;2022-09-01T01:41:16;99834.06;;;11.71;100.00
24762;BME280;12865;51.934;10.330;2022-09-01T01:44:04;99829.84;;;11.69;100.00
24762;BME280;12865;51.934;10.330;2022-09-01T01:46:51;99834.03;;;11.62;100.00
24762;BME280;12865;51.934;10.330;2022-09-01T01:49:39;99831.47;;;11.60;100.00
24762;BME280;12865;51.934;10.330;2022-09-01T01:52:28;99834.69;;;11.54;100.00
24762;BME280;12865;51.934;10.330;2022-09-01T01:55:14;99833.38;;;11.49;100.00
24762;BME280;12865;51.934;10.330;2022-09-01T01:58:03;99835.72;;;11.42;100.00
24762;BME280;12865;51.934;10.330;2022-09-01T02:00:52;99835.72;;;11.42;100.00
24762;BME280;12865;51.934;10.330;2022-09-01T02:03:39;99836.41;;;11.44;100.00
24762;BME280;12865;51.934;10.330;2022-09-01T02:06:26;99835.13;;;11.38;100.00
24762;BME280;12865;51.934;10.330;2022-09-01T02:09:14;99840.78;;;11.45;100.00
24762;BME280;12865;51.934;10.330;2022-09-01T02:12:00;99834.56;;;11.35;100.00
24762;BME280;12865;51.934;10.330;2022-09-01T02:14:46;99842.56;;;11.35;100.00
24762;BME280;12865;51.934;10.330;2022-09-01T02:17:32;99840.38;;;11.29;100.00
24762;BME280;12865;51.934;10.330;2022-09-01T02:20:18;99838.03;;;11.15;100.00
24762;BME280;12865;51.934;10.330;2022-09-01T02:23:07;99835.75;;;11.10;100.00
24762;BME280;12865;51.934;10.330;2022-09-01T02:25:58;99833.69;;;11.14;100.00
24762;BME280;12865;51.934;10.330;2022-09-01T02:28:46;99832.56;;;11.16;100.00
24762;BME280;12865;51.934;10.330;2022-09-01T02:31:35;99835.28;;;11.05;100.00
24762;BME280;12865;51.934;10.330;2022-09-01T02:34:26;99830.19;;;11.02;100.00
24762;BME280;12865;51.934;10.330;2022-09-01T02:37:13;99829.22;;;11.03;100.00
24762;BME280;12865;51.934;10.330;2022-09-01T02:40:00;99822.19;;;11.02;100.00
24762;BME280;12865;51.934;10.330;2022-09-01T02:42:46;99824.00;;;11.01;100.00
24762;BME280;12865;51.934;10.330;2022-09-01T02:45:33;99829.56;;;11.10;100.00
24762;BME280;12865;51.934;10.330;2022-09-01T02:48:24;99820.72;;;11.09;100.00
24762;BME280;12865;51.934;10.330;2022-09-01T02:51:13;99817.78;;;11.12;100.00
24762;BME280;12865;51.934;10.330;2022-09-01T02:53:59;99821.88;;;11.16;100.00
24762;BME280;12865;51.934;10.330;2022-09-01T02:56:45;99820.19;;;11.15;100.00
24762;BME280;12865;51.934;10.330;2022-09-01T02:59:32;99821.75;;;11.18;100.00
24762;BME280;12865;51.934;10.330;2022-09-01T03:02:19;99817.28;;;11.18;100.00
24762;BME280;12865;51.934;10.330;2022-09-01T03:05:04;99815.91;;;11.24;100.00
24762;BME280;12865;51.934;10.330;2022-09-01T03:07:54;99812.03;;;11.28;100.00
24762;BME280;12865;51.934;10.330;2022-09-01T03:10:42;99814.09;;;11.24;100.00
24762;BME280;12865;51.934;10.330;2022-09-01T03:13:28;99814.47;;;11.20;100.00
24762;BME280;12865;51.934;10.330;2022-09-01T03:16:15;99810.16;;;11.08;100.00
24762;BME280;12865;51.934;10.330;2022-09-01T03:19:01;99817.91;;;11.11;100.00
24762;BME280;12865;51.934;10.330;2022-09-01T03:21:48;99806.84;;;11.15;100.00
24762;BME280;12865;51.934;10.330;2022-09-01T03:24:33;99814.59;;;11.18;100.00
24762;BME280;12865;51.934;10.330;2022-09-01T03:27:19;99818.00;;;11.20;100.00
24762;BME280;12865;51.934;10.330;2022-09-01T03:30:05;99813.00;;;11.27;100.00
24762;BME280;12865;51.934;10.330;2022-09-01T03:32:51;99816.97;;;11.32;100.00
24762;BME280;12865;51.934;10.330;2022-09-01T03:35:37;99819.53;;;11.23;100.00
24762;BME280;12865;51.934;10.330;2022-09-01T03:38:24;99813.81;;;11.07;100.00
24762;BME280;12865;51.934;10.330;2022-09-01T03:41:10;99813.72;;;10.97;100.00
24762;BME280;12865;51.934;10.330;2022-09-01T03:43:58;99816.06;;;10.90;100.00
24762;BME280;12865;51.934;10.330;2022-09-01T03:46:43;99816.69;;;10.83;100.00
24762;BME280;12865;51.934;10.330;2022-09-01T03:49:29;99813.06;;;10.84;100.00
24762;BME280;12865;51.934;10.330;2022-09-01T03:52:16;99815.00;;;10.82;100.00
24762;BME280;12865;51.934;10.330;2022-09-01T03:55:02;99815.16;;;10.69;100.00
24762;BME280;12865;51.934;10.330;2022-09-01T03:57:49;99813.47;;;10.68;100.00
24762;BME280;12865;51.934;10.330;2022-09-01T04:00:38;99821.25;;;10.60;100.00
24762;BME280;12865;51.934;10.330;2022-09-01T04:03:27;99822.47;;;10.56;100.00
24762;BME280;12865;51.934;10.330;2022-09-01T04:06:14;99824.41;;;10.54;100.00
24762;BME280;12865;51.934;10.330;2022-09-01T04:09:02;99822.94;;;10.61;100.00
24762;BME280;12865;51.934;10.330;2022-09-01T04:11:48;99818.69;;;10.58;100.00
24762;BME280;12865;51.934;10.330;2022-09-01T04:14:36;99822.09;;;10.60;100.00
24762;BME280;12865;51.934;10.330;2022-09-01T04:17:21;99812.75;;;10.66;100.00
24762;BME280;12865;51.934;10.330;2022-09-01T04:20:28;99821.44;;;10.79;100.00
24762;BME280;12865;51.934;10.330;2022-09-01T04:26:11;99823.38;;;10.77;100.00
24762;BME280;12865;51.934;10.330;2022-09-01T04:28:59;99813.81;;;10.75;100.00
24762;BME280;12865;51.934;10.330;2022-09-01T04:31:45;99815.72;;;10.84;100.00
24762;BME280;12865;51.934;10.330;2022-09-01T04:34:38;99817.66;;;10.82;100.00
24762;BME280;12865;51.934;10.330;2022-09-01T04:37:24;99821.91;;;10.84;100.00
24762;BME280;12865;51.934;10.330;2022-09-01T04:40:10;99819.13;;;10.86;100.00
24762;BME280;12865;51.934;10.330;2022-09-01T04:42:59;99825.44;;;10.85;100.00
24762;BME280;12865;51.934;10.330;2022-09-01T04:45:45;99832.47;;;10.86;100.00
24762;BME280;12865;51.934;10.330;2022-09-01T04:48:34;99831.22;;;10.90;100.00
24762;BME280;12865;51.934;10.330;2022-09-01T04:51:21;99829.41;;;10.90;100.00
24762;BME280;12865;51.934;10.330;2022-09-01T04:54:07;99828.22;;;10.83;100.00
24762;BME280;12865;51.934;10.330;2022-09-01T04:56:56;99833.28;;;10.86;100.00
24762;BME280;12865;51.934;10.330;2022-09-01T04:59:42;99824.53;;;10.95;100.00
24762;BME280;12865;51.934;10.330;2022-09-01T05:02:27;99837.88;;;10.95;100.00
24762;BME280;12865;51.934;10.330;2022-09-01T05:05:13;99828.88;;;10.96;100.00
24762;BME280;12865;51.934;10.330;2022-09-01T05:07:59;99832.28;;;10.98;100.00
24762;BME280;12865;51.934;10.330;2022-09-01T05:10:49;99838.13;;;10.92;100.00
24762;BME280;12865;51.934;10.330;2022-09-01T05:13:37;99838.25;;;10.91;100.00
24762;BME280;12865;51.934;10.330;2022-09-01T05:16:27;99829.00;;;10.95;100.00
24762;BME280;12865;51.934;10.330;2022-09-01T05:19:13;99830.59;;;10.97;100.00
24762;BME280;12865;51.934;10.330;2022-09-01T05:21:59;99842.19;;;11.08;100.00
24762;BME280;12865;51.934;10.330;2022-09-01T05:24:44;99843.63;;;11.12;100.00
24762;BME280;12865;51.934;10.330;2022-09-01T05:27:31;99837.66;;;11.19;100.00
24762;BME280;12865;51.934;10.330;2022-09-01T05:30:17;99837.06;;;11.36;100.00
24762;BME280;12865;51.934;10.330;2022-09-01T05:33:03;99832.13;;;11.53;100.00
24762;BME280;12865;51.934;10.330;2022-09-01T05:35:55;99824.63;;;11.67;100.00
24762;BME280;12865;51.934;10.330;2022-09-01T05:38:41;99828.94;;;11.79;100.00
24762;BME280;12865;51.934;10.330;2022-09-01T05:41:27;99834.59;;;11.86;100.00
24762;BME280;12865;51.934;10.330;2022-09-01T05:44:14;99837.19;;;11.97;100.00
24762;BME280;12865;51.934;10.330;2022-09-01T05:47:00;99835.03;;;12.12;100.00
24762;BME280;12865;51.934;10.330;2022-09-01T05:49:47;99832.94;;;12.25;100.00
24762;BME280;12865;51.934;10.330;2022-09-01T05:52:37;99840.84;;;12.36;100.00
24762;BME280;12865;51.934;10.330;2022-09-01T05:55:22;99837.09;;;12.48;100.00
24762;BME280;12865;51.934;10.330;2022-09-01T05:58:13;99828.41;;;12.66;100.00
24762;BME280;12865;51.934;10.330;2022-09-01T06:01:00;99827.28;;;12.78;100.00
24762;BME280;12865;51.934;10.330;2022-09-01T06:03:45;99828.44;;;12.85;100.00
24762;BME280;12865;51.934;10.330;2022-09-01T06:06:44;99826.63;;;12.95;100.00
24762;BME280;12865;51.934;10.330;2022-09-01T06:09:30;99824.69;;;13.16;100.00
24762;BME280;12865;51.934;10.330;2022-09-01T06:12:16;99830.16;;;13.34;100.00
24762;BME280;12865;51.934;10.330;2022-09-01T06:15:02;99832.97;;;13.52;100.00
24762;BME280;12865;51.934;10.330;2022-09-01T06:17:48;99831.69;;;13.65;100.00
24762;BME280;12865;51.934;10.330;2022-09-01T06:20:40;99828.97;;;13.75;100.00
24762;BME280;12865;51.934;10.330;2022-09-01T06:23:26;99833.56;;;13.92;100.00
24762;BME280;12865;51.934;10.330;2022-09-01T06:26:19;99832.50;;;14.12;100.00
24762;BME280;12865;51.934;10.330;2022-09-01T06:29:09;99835.25;;;14.30;99.26
24762;BME280;12865;51.934;10.330;2022-09-01T06:31:59;99832.53;;;14.49;98.98
24762;BME280;12865;51.934;10.330;2022-09-01T06:34:46;99839.13;;;14.73;98.65
24762;BME280;12865;51.934;10.330;2022-09-01T06:37:34;99836.09;;;14.85;96.25
24762;BME280;12865;51.934;10.330;2022-09-01T06:40:22;99830.97;;;15.10;94.87
24762;BME280;12865;51.934;10.330;2022-09-01T06:43:10;99838.72;;;15.30;93.08
24762;BME280;12865;51.934;10.330;2022-09-01T06:46:00;99836.94;;;15.39;92.69
24762;BME280;12865;51.934;10.330;2022-09-01T06:48:46;99833.63;;;15.45;91.25
24762;BME280;12865;51.934;10.330;2022-09-01T06:51:32;99839.81;;;15.55;91.56
24762;BME280;12865;51.934;10.330;2022-09-01T06:54:18;99845.66;;;15.77;90.65
24762;BME280;12865;51.934;10.330;2022-09-01T06:57:04;99842.00;;;15.86;88.68
24762;BME280;12865;51.934;10.330;2022-09-01T06:59:51;99844.47;;;16.05;88.62
24762;BME280;12865;51.934;10.330;2022-09-01T07:02:38;99842.84;;;16.12;88.86
24762;BME280;12865;51.934;10.330;2022-09-01T07:05:27;99844.31;;;16.32;88.88
24762;BME280;12865;51.934;10.330;2022-09-01T07:08:14;99841.06;;;16.63;87.33
24762;BME280;12865;51.934;10.330;2022-09-01T07:11:08;99845.69;;;16.78;85.53
24762;BME280;12865;51.934;10.330;2022-09-01T07:14:03;99841.84;;;17.05;85.25
24762;BME280;12865;51.934;10.330;2022-09-01T07:16:49;99837.13;;;16.99;84.77
24762;BME280;12865;51.934;10.330;2022-09-01T07:19:35;99842.22;;;17.18;84.00
24762;BME280;12865;51.934;10.330;2022-09-01T07:22:22;99840.56;;;17.42;82.62
24762;BME280;12865;51.934;10.330;2022-09-01T07:25:08;99844.94;;;17.51;81.83
24762;BME280;12865;51.934;10.330;2022-09-01T07:27:56;99844.09;;;17.83;78.69
24762;BME280;12865;51.934;10.330;2022-09-01T07:30:48;99841.38;;;17.99;78.86
24762;BME280;12865;51.934;10.330;2022-09-01T07:33:34;99844.94;;;17.91;78.50
24762;BME280;12865;51.934;10.330;2022-09-01T07:36:20;99846.44;;;17.94;76.89
24762;BME280;12865;51.934;10.330;2022-09-01T07:39:06;99854.19;;;17.81;78.80
24762;BME280;12865;51.934;10.330;2022-09-01T07:41:51;99851.94;;;18.09;77.88
24762;BME280;12865;51.934;10.330;2022-09-01T07:44:37;99853.63;;;18.18;77.28
24762;BME280;12865;51.934;10.330;2022-09-01T07:47:23;99858.41;;;17.99;77.17
24762;BME280;12865;51.934;10.330;2022-09-01T07:50:10;99852.06;;;18.31;77.27
24762;BME280;12865;51.934;10.330;2022-09-01T07:52:56;99862.16;;;18.37;75.09
24762;BME280;12865;51.934;10.330;2022-09-01T07:55:44;99848.16;;;18.81;73.42
24762;BME280;12865;51.934;10.330;2022-09-01T07:58:30;99853.16;;;18.61;73.80
24762;BME280;12865;51.934;10.330;2022-09-01T08:01:20;99855.69;;;18.94;73.65
24762;BME280;12865;51.934;10.330;2022-09-01T08:04:06;99852.78;;;19.03;71.10
24762;BME280;12865;51.934;10.330;2022-09-01T08:06:52;99851.88;;;19.11;71.33
24762;BME280;12865;51.934;10.330;2022-09-01T08:09:39;99858.84;;;19.28;70.80
24762;BME280;12865;51.934;10.330;2022-09-01T08:12:25;99864.91;;;19.30;68.77
24762;BME280;12865;51.934;10.330;2022-09-01T08:15:11;99866.66;;;19.54;67.67
24762;BME280;12865;51.934;10.330;2022-09-01T08:17:56;99860.91;;;19.72;68.26
24762;BME280;12865;51.934;10.330;2022-09-01T08:20:43;99863.22;;;19.60;66.75
24762;BME280;12865;51.934;10.330;2022-09-01T08:23:29;99864.72;;;19.77;66.27
24762;BME280;12865;51.934;10.330;2022-09-01T08:26:17;99868.00;;;19.73;67.73
24762;BME280;12865;51.934;10.330;2022-09-01T08:29:03;99868.22;;;19.86;66.88
24762;BME280;12865;51.934;10.330;2022-09-01T08:31:48;99860.38;;;19.91;66.09
24762;BME280;12865;51.934;10.330;2022-09-01T08:34:34;99863.50;;;20.03;64.96
24762;BME280;12865;51.934;10.330;2022-09-01T08:37:22;99864.84;;;20.36;64.37
24762;BME280;12865;51.934;10.330;2022-09-01T08:40:12;99864.84;;;20.36;63.13
24762;BME280;12865;51.934;10.330;2022-09-01T08:46:11;99870.25;;;20.36;62.90
24762;BME280;12865;51.934;10.330;2022-09-01T08:49:00;99873.63;;;20.53;62.00
24762;BME280;12865;51.934;10.330;2022-09-01T08:54:59;99874.13;;;19.67;64.33
24762;BME280;12865;51.934;10.330;2022-09-01T08:57:47;99877.56;;;19.98;64.57
24762;BME280;12865;51.934;10.330;2022-09-01T09:00:42;99878.34;;;20.21;65.00
24762;BME280;12865;51.934;10.330;2022-09-01T09:03:37;99871.56;;;20.40;63.67
24762;BME280;12865;51.934;10.330;2022-09-01T09:09:54;99868.84;;;20.25;62.86
24762;BME280;12865;51.934;10.330;2022-09-01T09:16:05;99878.78;;;20.98;60.88
24762;BME280;12865;51.934;10.330;2022-09-01T09:18:55;99873.13;;;21.14;60.05
24762;BME280;12865;51.934;10.330;2022-09-01T09:21:46;99871.84;;;20.60;60.54
24762;BME280;12865;51.934;10.330;2022-09-01T09:27:39;99862.81;;;20.89;61.12
24762;BME280;12865;51.934;10.330;2022-09-01T09:30:27;99867.13;;;20.83;61.60
24762;BME280;12865;51.934;10.330;2022-09-01T09:33:33;99858.63;;;20.86;61.22
24762;BME280;12865;51.934;10.330;2022-09-01T09:36:22;99876.69;;;20.50;61.11
24762;BME280;12865;51.934;10.330;2022-09-01T09:39:13;99869.97;;;20.60;62.13
24762;BME280;12865;51.934;10.330;2022-09-01T09:42:12;99869.28;;;21.24;59.11
24762;BME280;12865;51.934;10.330;2022-09-01T09:44:58;99859.88;;;21.05;59.29
24762;BME280;12865;51.934;10.330;2022-09-01T09:47:45;99864.63;;;21.03;58.55
24762;BME280;12865;51.934;10.330;2022-09-01T09:50:37;99861.38;;;21.22;58.91
24762;BME280;12865;51.934;10.330;2022-09-01T09:59:00;99858.25;;;21.68;54.85
24762;BME280;12865;51.934;10.330;2022-09-01T10:01:46;99864.25;;;21.84;55.71
24762;BME280;12865;51.934;10.330;2022-09-01T10:04:36;99857.09;;;22.05;54.25
24762;BME280;12865;51.934;10.330;2022-09-01T10:13:14;99846.34;;;22.18;53.37
24762;BME280;12865;51.934;10.330;2022-09-01T10:16:04;99838.19;;;22.59;52.47
24762;BME280;12865;51.934;10.330;2022-09-01T10:18:51;99844.00;;;22.84;52.81
24762;BME280;12865;51.934;10.330;2022-09-01T10:21:39;99836.22;;;22.81;51.27
24762;BME280;12865;51.934;10.330;2022-09-01T10:24:29;99839.88;;;23.14;49.34
24762;BME280;12865;51.934;10.330;2022-09-01T10:30:18;99831.22;;;22.78;49.44
24762;BME280;12865;51.934;10.330;2022-09-01T10:33:04;99835.88;;;22.97;48.54
24762;BME280;12865;51.934;10.330;2022-09-01T10:35:52;99827.94;;;23.08;47.38
24762;BME280;12865;51.934;10.330;2022-09-01T10:38:38;99822.34;;;23.36;46.82
24762;BME280;12865;51.934;10.330;2022-09-01T10:44:58;99831.63;;;23.62;44.25
24762;BME280;12865;51.934;10.330;2022-09-01T10:47:46;99832.56;;;22.60;45.84
24762;BME280;12865;51.934;10.330;2022-09-01T10:50:32;99829.66;;;23.23;44.01
24762;BME280;12865;51.934;10.330;2022-09-01T11:07:44;99813.34;;;24.21;39.27
24762;BME280;12865;51.934;10.330;2022-09-01T11:10:47;99807.06;;;24.01;40.75
24762;BME280;12865;51.934;10.330;2022-09-01T11:13:45;99802.41;;;24.35;38.82
24762;BME280;12865;51.934;10.330;2022-09-01T11:16:34;99802.91;;;24.70;39.60
24762;BME280;12865;51.934;10.330;2022-09-01T11:19:31;99807.81;;;24.48;37.70
24762;BME280;12865;51.934;10.330;2022-09-01T11:22:22;99807.81;;;24.48;37.19
24762;BME280;12865;51.934;10.330;2022-09-01T11:25:36;99800.84;;;24.58;38.57
24762;BME280;12865;51.934;10.330;2022-09-01T11:34:16;99798.44;;;25.20;35.87
24762;BME280;12865;51.934;10.330;2022-09-01T11:37:11;99801.44;;;24.67;36.29
24762;BME280;12865;51.934;10.330;2022-09-01T11:40:02;99800.59;;;23.89;37.03
24762;BME280;12865;51.934;10.330;2022-09-01T11:42:49;99805.59;;;24.05;37.72
24762;BME280;12865;51.934;10.330;2022-09-01T11:48:38;99804.31;;;24.27;36.92
24762;BME280;12865;51.934;10.330;2022-09-01T11:51:24;99801.16;;;24.37;36.63
24762;BME280;12865;51.934;10.330;2022-09-01T11:54:10;99802.09;;;23.59;37.28
24762;BME280;12865;51.934;10.330;2022-09-01T11:56:56;99815.28;;;23.81;37.17
24762;BME280;12865;51.934;10.330;2022-09-01T11:59:42;99796.00;;;23.57;38.49
24762;BME280;12865;51.934;10.330;2022-09-01T12:02:31;99811.28;;;23.64;37.67
24762;BME280;12865;51.934;10.330;2022-09-01T12:08:15;99810.03;;;23.86;37.63
24762;BME280;12865;51.934;10.330;2022-09-01T12:11:49;99803.91;;;24.04;36.56
24762;BME280;12865;51.934;10.330;2022-09-01T12:14:21;99795.13;;;24.02;37.54
24762;BME280;12865;51.934;10.330;2022-09-01T12:17:07;99797.78;;;24.42;37.42
24762;BME280;12865;51.934;10.330;2022-09-01T12:19:53;99789.13;;;24.58;36.12
24762;BME280;12865;51.934;10.330;2022-09-01T12:22:41;99789.50;;;24.61;34.94
24762;BME280;12865;51.934;10.330;2022-09-01T12:25:30;99786.22;;;24.53;36.08
24762;BME280;12865;51.934;10.330;2022-09-01T12:28:16;99791.69;;;24.40;34.99
24762;BME280;12865;51.934;10.330;2022-09-01T12:31:05;99796.41;;;23.80;35.08
24762;BME280;12865;51.934;10.330;2022-09-01T12:33:53;99790.91;;;24.06;35.31
24762;BME280;12865;51.934;10.330;2022-09-01T12:36:39;99787.19;;;23.81;36.19
24762;BME280;12865;51.934;10.330;2022-09-01T12:39:32;99773.97;;;23.91;35.77
24762;BME280;12865;51.934;10.330;2022-09-01T12:45:06;99778.78;;;24.02;36.88
24762;BME280;12865;51.934;10.330;2022-09-01T12:47:52;99777.34;;;23.80;35.18
24762;BME280;12865;51.934;10.330;2022-09-01T12:50:42;99781.75;;;23.81;35.80
24762;BME280;12865;51.934;10.330;2022-09-01T12:53:31;99773.38;;;23.89;36.18
24762;BME280;12865;51.934;10.330;2022-09-01T12:56:22;99767.72;;;23.71;36.83
24762;BME280;12865;51.934;10.330;2022-09-01T12:59:20;99768.53;;;23.84;36.25
24762;BME280;12865;51.934;10.330;2022-09-01T13:02:36;99760.75;;;24.01;35.75
24762;BME280;12865;51.934;10.330;2022-09-01T13:08:21;99753.03;;;24.56;34.47
24762;BME280;12865;51.934;10.330;2022-09-01T13:11:14;99749.88;;;24.59;34.12
24762;BME280;12865;51.934;10.330;2022-09-01T13:14:02;99749.13;;;24.83;33.30
24762;BME280;12865;51.934;10.330;2022-09-01T13:16:48;99740.41;;;24.61;32.65
24762;BME280;12865;51.934;10.330;2022-09-01T13:19:35;99737.97;;;25.23;32.20
24762;BME280;12865;51.934;10.330;2022-09-01T13:22:22;99739.00;;;25.47;31.74
24762;BME280;12865;51.934;10.330;2022-09-01T13:25:08;99733.19;;;25.43;31.60
24762;BME280;12865;51.934;10.330;2022-09-01T13:27:55;99745.09;;;25.49;32.71
24762;BME280;12865;51.934;10.330;2022-09-01T13:30:42;99731.78;;;25.59;32.07
24762;BME280;12865;51.934;10.330;2022-09-01T13:33:31;99730.25;;;25.38;31.91
24762;BME280;12865;51.934;10.330;2022-09-01T13:36:17;99730.66;;;25.41;31.96
24762;BME280;12865;51.934;10.330;2022-09-01T13:39:04;99720.06;;;25.52;31.39
24762;BME280;12865;51.934;10.330;2022-09-01T13:41:49;99717.25;;;25.83;31.28
24762;BME280;12865;51.934;10.330;2022-09-01T13:44:35;99718.78;;;25.79;32.00
24762;BME280;12865;51.934;10.330;2022-09-01T13:47:21;99722.88;;;25.88;32.01
24762;BME280;12865;51.934;10.330;2022-09-01T13:50:10;99720.44;;;25.80;33.06
24762;BME280;12865;51.934;10.330;2022-09-01T13:52:57;99724.75;;;25.69;33.68
24762;BME280;12865;51.934;10.330;2022-09-01T13:55:43;99721.13;;;25.26;33.30
24762;BME280;12865;51.934;10.330;2022-09-01T13:58:29;99711.81;;;24.77;34.37
24762;BME280;12865;51.934;10.330;2022-09-01T14:01:15;99711.84;;;24.71;34.99
24762;BME280;12865;51.934;10.330;2022-09-01T14:04:00;99717.88;;;24.79;33.74
24762;BME280;12865;51.934;10.330;2022-09-01T14:06:48;99715.56;;;24.45;34.36
24762;BME280;12865;51.934;10.330;2022-09-01T14:09:34;99725.56;;;24.00;35.18
24762;BME280;12865;51.934;10.330;2022-09-01T14:12:20;99717.41;;;24.51;34.47
24762;BME280;12865;51.934;10.330;2022-09-01T14:15:07;99708.38;;;24.57;34.73
24762;BME280;12865;51.934;10.330;2022-09-01T14:17:55;99714.19;;;24.22;35.18
24762;BME280;12865;51.934;10.330;2022-09-01T14:20:44;99714.38;;;24.72;34.09
24762;BME280;12865;51.934;10.330;2022-09-01T14:23:30;99709.88;;;24.53;34.34
24762;BME280;12865;51.934;10.330;2022-09-01T14:26:15;99700.31;;;25.07;33.53
24762;BME280;12865;51.934;10.330;2022-09-01T14:29:01;99712.44;;;24.79;33.64
24762;BME280;12865;51.934;10.330;2022-09-01T14:31:47;99703.03;;;25.07;33.49
24762;BME280;12865;51.934;10.330;2022-09-01T14:34:34;99705.91;;;24.80;33.50
24762;BME280;12865;51.934;10.330;2022-09-01T14:37:22;99709.50;;;24.43;34.44
24762;BME280;12865;51.934;10.330;2022-09-01T14:40:10;99705.16;;;24.67;33.71
24762;BME280;12865;51.934;10.330;2022-09-01T14:42:57;99709.50;;;24.43;33.58
24762;BME280;12865;51.934;10.330;2022-09-01T14:45:43;99698.66;;;24.30;33.50
24762;BME280;12865;51.934;10.330;2022-09-01T14:48:33;99690.16;;;23.93;34.28
24762;BME280;12865;51.934;10.330;2022-09-01T14:51:24;99694.69;;;24.12;34.03
24762;BME280;12865;51.934;10.330;2022-09-01T14:54:11;99693.50;;;24.53;33.91
24762;BME280;12865;51.934;10.330;2022-09-01T14:56:56;99689.56;;;24.80;33.19
24762;BME280;12865;51.934;10.330;2022-09-01T14:59:42;99688.88;;;24.53;33.53
24762;BME280;12865;51.934;10.330;2022-09-01T15:02:28;99686.56;;;24.95;33.58
24762;BME280;12865;51.934;10.330;2022-09-01T15:05:14;99690.75;;;25.22;32.13
24762;BME280;12865;51.934;10.330;2022-09-01T15:08:00;99679.75;;;25.29;32.11
24762;BME280;12865;51.934;10.330;2022-09-01T15:10:46;99680.97;;;25.58;32.42
24762;BME280;12865;51.934;10.330;2022-09-01T15:13:31;99681.13;;;25.81;31.27
24762;BME280;12865;51.934;10.330;2022-09-01T15:16:22;99684.84;;;25.87;31.93
24762;BME280;12865;51.934;10.330;2022-09-01T15:19:10;99682.72;;;24.64;31.21
24762;BME280;12865;51.934;10.330;2022-09-01T15:21:56;99691.09;;;25.26;30.73
24762;BME280;12865;51.934;10.330;2022-09-01T15:24:42;99690.28;;;25.25;30.82
24762;BME280;12865;51.934;10.330;2022-09-01T15:27:28;99685.13;;;24.48;31.26
24762;BME280;12865;51.934;10.330;2022-09-01T15:30:14;99673.41;;;23.96;32.81
24762;BME280;12865;51.934;10.330;2022-09-01T15:33:02;99679.63;;;24.92;32.00
24762;BME280;12865;51.934;10.330;2022-09-01T15:35:48;99683.94;;;25.07;31.04
24762;BME280;12865;51.934;10.330;2022-09-01T15:38:34;99665.44;;;25.52;30.01
24762;BME280;12865;51.934;10.330;2022-09-01T15:41:30;99669.16;;;25.39;30.30